AXB304 VOMM-VOBL
Flight info
| Callsign | AXB304 |
|---|---|
| Flight time | 0h 34m |
| Altitude | 16000 |
| Route | MMV W117 BIA |
| Aircraft | B738/M-SDE2E3FGHIRWXY/LB1 |
Departure
| Time | 2026-04-26 07:20 |
|---|---|
| Airport | Chennai International Airport (VOMM) |
Arrival
| Time | 2026-04-26 07:54 |
|---|---|
| Airport | Kempegowda International Airport Bengaluru (VOBL) |
| Time | Latitude | Longitude | Altitude | Speed | Heading |
|---|---|---|---|---|---|
| 2026-04-26 07:06 | 12.98388 | 80.16384 | 53 ft | 0 kts | 159° |
| 2026-04-26 07:12 | 12.98404 | 80.16377 | 66 ft | 4 kts | 160° |
| 2026-04-26 07:12 | 12.98427 | 80.16367 | 47 ft | 3 kts | 129° |
| 2026-04-26 07:12 | 12.98438 | 80.16347 | 48 ft | 4 kts | 82° |
| 2026-04-26 07:12 | 12.98429 | 80.16322 | 47 ft | 3 kts | 68° |
| 2026-04-26 07:13 | 12.98427 | 80.16319 | 47 ft | 1 kts | 70° |
| 2026-04-26 07:15 | 12.98433 | 80.16337 | 53 ft | 5 kts | 70° |
| 2026-04-26 07:15 | 12.98455 | 80.16396 | 53 ft | 14 kts | 70° |
| 2026-04-26 07:16 | 12.98496 | 80.16508 | 52 ft | 19 kts | 69° |
| 2026-04-26 07:16 | 12.98545 | 80.16643 | 50 ft | 20 kts | 69° |
| 2026-04-26 07:16 | 12.98595 | 80.16759 | 52 ft | 17 kts | 38° |
| 2026-04-26 07:16 | 12.98703 | 80.16737 | 54 ft | 16 kts | 339° |
| 2026-04-26 07:17 | 12.98779 | 80.16797 | 54 ft | 16 kts | 70° |
| 2026-04-26 07:17 | 12.98822 | 80.16911 | 50 ft | 19 kts | 69° |
| 2026-04-26 07:17 | 12.98874 | 80.17052 | 54 ft | 23 kts | 69° |
| 2026-04-26 07:17 | 12.98932 | 80.17200 | 53 ft | 16 kts | 68° |
| 2026-04-26 07:18 | 12.98948 | 80.17234 | 51 ft | 13 kts | 60° |
| 2026-04-26 07:18 | 12.98994 | 80.17330 | 48 ft | 16 kts | 68° |
| 2026-04-26 07:18 | 12.99035 | 80.17440 | 48 ft | 17 kts | 70° |
| 2026-04-26 07:18 | 12.99081 | 80.17559 | 53 ft | 19 kts | 71° |
| 2026-04-26 07:19 | 12.99127 | 80.17679 | 53 ft | 17 kts | 52° |
| 2026-04-26 07:19 | 12.99237 | 80.17675 | 53 ft | 17 kts | 338° |
| 2026-04-26 07:19 | 12.99276 | 80.17589 | 52 ft | 16 kts | 251° |
| 2026-04-26 07:19 | 12.99214 | 80.17424 | 51 ft | 50 kts | 249° |
| 2026-04-26 07:20 | 12.99002 | 80.16857 | 48 ft | 120 kts | 249° |
| 2026-04-26 07:20 | 12.98629 | 80.15860 | 55 ft | 177 kts | 248° |
| 2026-04-26 07:20 | 12.98208 | 80.14628 | 708 ft | 181 kts | 246° |
| 2026-04-26 07:20 | 12.97841 | 80.13384 | 1648 ft | 182 kts | 259° |
| 2026-04-26 07:21 | 12.98045 | 80.12044 | 2283 ft | 207 kts | 287° |
| 2026-04-26 07:21 | 12.98556 | 80.10564 | 2547 ft | 233 kts | 287° |
| 2026-04-26 07:21 | 12.99091 | 80.08942 | 2997 ft | 247 kts | 286° |
| 2026-04-26 07:21 | 12.99643 | 80.07183 | 3352 ft | 269 kts | 285° |
| 2026-04-26 07:22 | 13.00218 | 80.05313 | 4015 ft | 276 kts | 285° |
| 2026-04-26 07:22 | 13.00791 | 80.03422 | 4842 ft | 280 kts | 286° |
| 2026-04-26 07:22 | 13.01368 | 80.01491 | 5493 ft | 286 kts | 287° |
| 2026-04-26 07:22 | 13.01952 | 79.99519 | 6208 ft | 292 kts | 287° |
| 2026-04-26 07:23 | 13.02539 | 79.97525 | 7017 ft | 293 kts | 288° |
| 2026-04-26 07:23 | 13.03128 | 79.95516 | 7777 ft | 297 kts | 288° |
| 2026-04-26 07:23 | 13.03725 | 79.93476 | 8496 ft | 302 kts | 288° |
| 2026-04-26 07:23 | 13.04334 | 79.91391 | 9234 ft | 307 kts | 289° |
| 2026-04-26 07:24 | 13.04949 | 79.89282 | 9946 ft | 311 kts | 289° |
| 2026-04-26 07:24 | 13.05583 | 79.87112 | 10305 ft | 329 kts | 289° |
| 2026-04-26 07:24 | 13.06262 | 79.84789 | 10604 ft | 347 kts | 289° |
| 2026-04-26 07:24 | 13.06959 | 79.82392 | 11174 ft | 353 kts | 289° |
| 2026-04-26 07:25 | 13.07660 | 79.79975 | 11890 ft | 355 kts | 288° |
| 2026-04-26 07:25 | 13.08311 | 79.77523 | 12588 ft | 358 kts | 287° |
| 2026-04-26 07:25 | 13.08924 | 79.75041 | 13255 ft | 361 kts | 286° |
| 2026-04-26 07:25 | 13.09533 | 79.72525 | 13880 ft | 365 kts | 285° |
| 2026-04-26 07:26 | 13.10147 | 79.69991 | 14503 ft | 367 kts | 285° |
| 2026-04-26 07:26 | 13.10767 | 79.67449 | 15123 ft | 369 kts | 285° |
| 2026-04-26 07:26 | 13.11395 | 79.64885 | 15691 ft | 373 kts | 285° |
| 2026-04-26 07:26 | 13.12034 | 79.62292 | 15826 ft | 375 kts | 285° |
| 2026-04-26 07:27 | 13.12672 | 79.59708 | 15844 ft | 374 kts | 285° |
| 2026-04-26 07:27 | 13.13311 | 79.57123 | 15850 ft | 374 kts | 285° |
| 2026-04-26 07:27 | 13.13951 | 79.54530 | 15858 ft | 374 kts | 285° |
| 2026-04-26 07:27 | 13.14592 | 79.51938 | 15862 ft | 375 kts | 285° |
| 2026-04-26 07:28 | 13.15232 | 79.49348 | 15858 ft | 375 kts | 285° |
| 2026-04-26 07:28 | 13.15872 | 79.46754 | 15851 ft | 375 kts | 285° |
| 2026-04-26 07:28 | 13.16513 | 79.44154 | 15850 ft | 375 kts | 285° |
| 2026-04-26 07:28 | 13.17153 | 79.41561 | 15859 ft | 375 kts | 285° |
| 2026-04-26 07:29 | 13.17791 | 79.38972 | 15852 ft | 375 kts | 285° |
| 2026-04-26 07:29 | 13.18433 | 79.36368 | 15852 ft | 375 kts | 285° |
| 2026-04-26 07:29 | 13.19071 | 79.33779 | 15859 ft | 375 kts | 285° |
| 2026-04-26 07:29 | 13.19712 | 79.31187 | 15855 ft | 375 kts | 285° |
| 2026-04-26 07:30 | 13.20353 | 79.28596 | 15857 ft | 374 kts | 285° |
| 2026-04-26 07:30 | 13.20993 | 79.26011 | 15860 ft | 374 kts | 285° |
| 2026-04-26 07:30 | 13.21635 | 79.23418 | 15862 ft | 374 kts | 285° |
| 2026-04-26 07:30 | 13.22275 | 79.20832 | 15868 ft | 374 kts | 285° |
| 2026-04-26 07:31 | 13.22907 | 79.18272 | 15865 ft | 375 kts | 285° |
| 2026-04-26 07:31 | 13.23546 | 79.15683 | 15876 ft | 375 kts | 285° |
| 2026-04-26 07:31 | 13.24187 | 79.13088 | 15870 ft | 376 kts | 285° |
| 2026-04-26 07:31 | 13.24829 | 79.10488 | 15874 ft | 376 kts | 285° |
| 2026-04-26 07:32 | 13.25469 | 79.07891 | 15883 ft | 376 kts | 285° |
| 2026-04-26 07:32 | 13.26110 | 79.05293 | 15884 ft | 375 kts | 285° |
| 2026-04-26 07:32 | 13.26750 | 79.02694 | 15888 ft | 376 kts | 285° |
| 2026-04-26 07:32 | 13.27390 | 79.00094 | 15891 ft | 375 kts | 285° |
| 2026-04-26 07:33 | 13.28030 | 78.97497 | 15897 ft | 375 kts | 285° |
| 2026-04-26 07:33 | 13.28668 | 78.94904 | 15900 ft | 375 kts | 285° |
| 2026-04-26 07:33 | 13.29289 | 78.92308 | 15902 ft | 375 kts | 282° |
| 2026-04-26 07:33 | 13.29398 | 78.89637 | 15918 ft | 375 kts | 266° |
| 2026-04-26 07:34 | 13.29184 | 78.86968 | 15913 ft | 376 kts | 265° |
| 2026-04-26 07:34 | 13.28959 | 78.84299 | 15909 ft | 376 kts | 265° |
| 2026-04-26 07:34 | 13.28739 | 78.81627 | 15920 ft | 376 kts | 266° |
| 2026-04-26 07:34 | 13.28529 | 78.78951 | 15929 ft | 376 kts | 266° |
| 2026-04-26 07:35 | 13.28327 | 78.76278 | 15926 ft | 377 kts | 266° |
| 2026-04-26 07:35 | 13.28129 | 78.73601 | 15929 ft | 376 kts | 266° |
| 2026-04-26 07:35 | 13.27933 | 78.70916 | 15934 ft | 377 kts | 266° |
| 2026-04-26 07:35 | 13.27740 | 78.68240 | 15931 ft | 377 kts | 266° |
| 2026-04-26 07:36 | 13.27545 | 78.65548 | 15934 ft | 377 kts | 266° |
| 2026-04-26 07:36 | 13.27352 | 78.62876 | 15943 ft | 376 kts | 266° |
| 2026-04-26 07:36 | 13.27157 | 78.60193 | 15944 ft | 376 kts | 266° |
| 2026-04-26 07:36 | 13.26963 | 78.57518 | 15943 ft | 376 kts | 266° |
| 2026-04-26 07:37 | 13.26768 | 78.54840 | 15952 ft | 376 kts | 266° |
| 2026-04-26 07:37 | 13.26573 | 78.52166 | 15949 ft | 376 kts | 266° |
| 2026-04-26 07:37 | 13.26378 | 78.49500 | 15960 ft | 375 kts | 266° |
| 2026-04-26 07:37 | 13.26192 | 78.46829 | 15958 ft | 376 kts | 269° |
| 2026-04-26 07:38 | 13.26384 | 78.44158 | 15973 ft | 374 kts | 279° |
| 2026-04-26 07:38 | 13.26821 | 78.41527 | 15960 ft | 374 kts | 281° |
| 2026-04-26 07:38 | 13.27293 | 78.38898 | 15959 ft | 374 kts | 281° |
| 2026-04-26 07:38 | 13.27756 | 78.36273 | 15963 ft | 374 kts | 281° |
| 2026-04-26 07:39 | 13.28202 | 78.33639 | 15962 ft | 374 kts | 280° |
| 2026-04-26 07:39 | 13.28628 | 78.31042 | 15969 ft | 374 kts | 280° |
| 2026-04-26 07:39 | 13.29056 | 78.28376 | 15980 ft | 374 kts | 280° |
| 2026-04-26 07:39 | 13.29469 | 78.25777 | 15976 ft | 374 kts | 280° |
| 2026-04-26 07:40 | 13.29887 | 78.23147 | 15980 ft | 374 kts | 280° |
| 2026-04-26 07:40 | 13.30305 | 78.20510 | 15982 ft | 374 kts | 279° |
| 2026-04-26 07:40 | 13.30576 | 78.17850 | 15982 ft | 375 kts | 273° |
| 2026-04-26 07:40 | 13.30635 | 78.15178 | 15986 ft | 371 kts | 270° |
| 2026-04-26 07:41 | 13.30626 | 78.12569 | 15973 ft | 361 kts | 270° |
| 2026-04-26 07:41 | 13.30612 | 78.10035 | 15970 ft | 349 kts | 270° |
| 2026-04-26 07:41 | 13.30611 | 78.07587 | 15976 ft | 339 kts | 271° |
| 2026-04-26 07:41 | 13.30623 | 78.05180 | 15943 ft | 338 kts | 271° |
| 2026-04-26 07:42 | 13.30646 | 78.02760 | 15728 ft | 338 kts | 271° |
| 2026-04-26 07:42 | 13.30674 | 78.00340 | 15434 ft | 340 kts | 271° |
| 2026-04-26 07:42 | 13.30705 | 77.97924 | 15115 ft | 338 kts | 271° |
| 2026-04-26 07:42 | 13.30738 | 77.95510 | 14795 ft | 338 kts | 272° |
| 2026-04-26 07:43 | 13.30771 | 77.93091 | 14455 ft | 340 kts | 272° |
| 2026-04-26 07:43 | 13.30805 | 77.90656 | 14125 ft | 343 kts | 272° |
| 2026-04-26 07:43 | 13.30838 | 77.88201 | 13793 ft | 343 kts | 272° |
| 2026-04-26 07:43 | 13.30871 | 77.85748 | 13424 ft | 343 kts | 272° |
| 2026-04-26 07:44 | 13.30905 | 77.83298 | 13052 ft | 343 kts | 272° |
| 2026-04-26 07:44 | 13.30937 | 77.80849 | 12682 ft | 343 kts | 272° |
| 2026-04-26 07:44 | 13.30970 | 77.78411 | 12317 ft | 342 kts | 272° |
| 2026-04-26 07:44 | 13.30995 | 77.75966 | 11955 ft | 341 kts | 272° |
| 2026-04-26 07:45 | 13.31014 | 77.73533 | 11594 ft | 340 kts | 271° |
| 2026-04-26 07:45 | 13.31033 | 77.71104 | 11243 ft | 339 kts | 271° |
| 2026-04-26 07:45 | 13.31053 | 77.68684 | 10887 ft | 338 kts | 271° |
| 2026-04-26 07:45 | 13.31072 | 77.66276 | 10552 ft | 337 kts | 271° |
| 2026-04-26 07:46 | 13.31091 | 77.63880 | 10351 ft | 331 kts | 271° |
| 2026-04-26 07:46 | 13.31108 | 77.61567 | 10328 ft | 319 kts | 271° |
| 2026-04-26 07:46 | 13.31124 | 77.59329 | 10285 ft | 308 kts | 271° |
| 2026-04-26 07:46 | 13.31140 | 77.57167 | 10243 ft | 297 kts | 271° |
| 2026-04-26 07:47 | 13.31155 | 77.55081 | 10186 ft | 288 kts | 271° |
| 2026-04-26 07:47 | 13.31172 | 77.53012 | 9846 ft | 291 kts | 271° |
| 2026-04-26 07:47 | 13.31188 | 77.50944 | 9507 ft | 288 kts | 271° |
| 2026-04-26 07:47 | 13.31188 | 77.48903 | 9156 ft | 284 kts | 270° |
| 2026-04-26 07:48 | 13.31169 | 77.46887 | 8784 ft | 281 kts | 270° |
| 2026-04-26 07:48 | 13.30993 | 77.44932 | 8395 ft | 279 kts | 251° |
| 2026-04-26 07:48 | 13.29934 | 77.43293 | 8036 ft | 273 kts | 216° |
| 2026-04-26 07:48 | 13.28251 | 77.42567 | 7696 ft | 269 kts | 182° |
| 2026-04-26 07:49 | 13.26452 | 77.42928 | 7364 ft | 265 kts | 148° |
| 2026-04-26 07:49 | 13.25149 | 77.44221 | 7078 ft | 261 kts | 123° |
| 2026-04-26 07:49 | 13.24188 | 77.45792 | 6803 ft | 259 kts | 120° |
| 2026-04-26 07:50 | 13.22411 | 77.48943 | 6162 ft | 251 kts | 119° |
| 2026-04-26 07:50 | 13.21551 | 77.50470 | 6000 ft | 241 kts | 119° |
| 2026-04-26 07:50 | 13.20782 | 77.51941 | 5961 ft | 227 kts | 108° |
| 2026-04-26 07:50 | 13.20773 | 77.53465 | 5940 ft | 210 kts | 72° |
| 2026-04-26 07:51 | 13.21163 | 77.54919 | 5549 ft | 211 kts | 89° |
| 2026-04-26 07:51 | 13.20965 | 77.56385 | 5307 ft | 206 kts | 98° |
| 2026-04-26 07:51 | 13.20825 | 77.57836 | 5048 ft | 204 kts | 92° |
| 2026-04-26 07:51 | 13.20794 | 77.59295 | 4792 ft | 204 kts | 90° |
| 2026-04-26 07:52 | 13.20784 | 77.60734 | 4521 ft | 198 kts | 90° |
| 2026-04-26 07:52 | 13.20771 | 77.62116 | 4302 ft | 190 kts | 90° |
| 2026-04-26 07:52 | 13.20764 | 77.63430 | 4074 ft | 177 kts | 90° |
| 2026-04-26 07:52 | 13.20752 | 77.64638 | 3838 ft | 164 kts | 91° |
| 2026-04-26 07:53 | 13.20738 | 77.65816 | 3609 ft | 167 kts | 91° |
| 2026-04-26 07:53 | 13.20740 | 77.67020 | 3363 ft | 171 kts | 91° |
| 2026-04-26 07:53 | 13.20726 | 77.68244 | 3138 ft | 171 kts | 92° |
| 2026-04-26 07:53 | 13.20710 | 77.69449 | 3011 ft | 163 kts | 90° |
| 2026-04-26 07:54 | 13.20703 | 77.70474 | 3010 ft | 122 kts | 90° |
| 2026-04-26 07:54 | 13.20698 | 77.71191 | 3010 ft | 79 kts | 91° |
| 2026-04-26 07:54 | 13.20694 | 77.71608 | 3010 ft | 37 kts | 90° |
| 2026-04-26 07:54 | 13.20694 | 77.71810 | 3010 ft | 26 kts | 90° |
| 2026-04-26 07:55 | 13.20691 | 77.72010 | 3010 ft | 29 kts | 91° |
| 2026-04-26 07:55 | 13.20675 | 77.72177 | 3011 ft | 18 kts | 124° |
| 2026-04-26 07:55 | 13.20558 | 77.72199 | 3011 ft | 17 kts | 188° |
| 2026-04-26 07:55 | 13.20506 | 77.72125 | 3013 ft | 11 kts | 230° |
| 2026-04-26 07:56 | 13.20453 | 77.72114 | 3011 ft | 8 kts | 179° |
| 2026-04-26 07:56 | 13.20399 | 77.72114 | 3016 ft | 8 kts | 180° |
| 2026-04-26 07:56 | 13.20343 | 77.72114 | 3012 ft | 8 kts | 181° |
| 2026-04-26 07:56 | 13.20283 | 77.72113 | 3010 ft | 9 kts | 180° |
| 2026-04-26 07:57 | 13.20211 | 77.72113 | 3010 ft | 13 kts | 180° |
| 2026-04-26 07:57 | 13.20105 | 77.72111 | 3010 ft | 15 kts | 180° |
| 2026-04-26 07:57 | 13.20008 | 77.72111 | 3010 ft | 13 kts | 180° |
| 2026-04-26 07:57 | 13.19947 | 77.72106 | 3010 ft | 6 kts | 207° |
| 2026-04-26 07:58 | 13.19934 | 77.72068 | 3010 ft | 6 kts | 263° |
| 2026-04-26 07:58 | 13.19931 | 77.72041 | 3010 ft | 0 kts | 263° |
| 2026-04-26 07:58 | 13.19930 | 77.72034 | 3010 ft | 2 kts | 263° |